BIENTÔT MET'MAP
version 2.0 !

Prévue avant fin octobre,
la nouvelle version sera
plus belle, plus complète
et hébergée sur un serveur
3 fois plus puissant...
et toujours gratuite !


Pas compatible ?
Essayez la version Mobile !

SE CONNECTER : | S'inscrire | Disclaimer | Découvrir Orbifly |
Code OACI :
Lgende : VFR VFR Marginal IFR IFR Intensif IFR Trs Intensif
Visi :
Plafond :
>= 8 km
>= 3000ft
5 8 km
1000 3000 ft
1500m 5 km
500 1000 ft
800 1500m
200 500 ft
< 800m
< 200 ft

METAR - LEZL Sevilla San Pablo - 25 Jan 2020 08:47 UTC - Data Source NOAA   


- Altitude de l'aérodrome : 112 ft
- Code IATA : SVQ
- Pas de NOTAMs connus.


LEZL - Sevilla San Pablo

Dernier METAR connu : 2015/08/11 08:00 LEZL 110800Z 20004KT 150V290 CAVOK 24/19 Q1014 NOSIG
TAF TAF LEZL
Valide du 25 à 03h jusqu'au 26 à 03h UTC


250200Z 2503/2603 11008KT 9999 SCT020 BKN045 TX14/2515Z TN08/2507Z
PROB30
TEMPO 2503/2518 3000 SHRA FEW030CB
PROB30
TEMPO 2503/2506 3000 TSRA SCT030CB

Source NOAA


MET'MAP, la Météo Aéronautique d'un coup d'oeil ! - Copyright ORBIFLY Décembre 2007

Développement & Programmation : Alexandra Zaïnal
Co-Développement : Marc-Olivier Méhu
Soutien technique & logistique : Manuel Goepfert
Conception & Financement : Baudouin d'Aumeries